Hua Hin Airport
VTPH : now visible

Airfield :











YOU CAN JOIN US ON...

 
LOGIN :

Register | Disclaimer

   EN    FR    IT 

 









Legend :    VFR   Marginal VFR   IFR   Intensive IFR   Very Intensive IFR
Visi :
Ceiling :
>= 8 km
>= 3000ft
5 to 8 km
1000 to 3000 ft
1500m to 5 km
500 to 1000 ft
800 to 1500m
200 to 500 ft
< 800m
< 200 ft
Symbols :   Thunderstorms  Fog  Heavy snow  Heavy precipitations  Wind > 20 kt






- Airport Elevation : 62 ft
- IATA code : HHQ


VTPH - Hua Hin

CURRENT METAR :
  • 100800Z 14013KT 9999 FEW028 33/26 Q1010 NOSIG

EXPIRED METARs :
  • 100700Z 14014KT 9999 FEW030 33/26 Q1011 NOSIG
  • 100600Z 14014KT 9999 FEW028 33/26 Q1012 NOSIG

TAF TAF VTPH
Valid from the 10 at 06:00 until the 11 at 06:00 UTC


100500Z 1006/1106 15010KT 9000 FEW025
TEMPO 1006/1010 14010G20KT 5000 TSRA FEW018CB SCT030 BKN100
BECMG 1015/1017 23005KT
BECMG 1022/1024 00000KT



MET'MAP, your aeronautical weather chart ! - Copyright ORBIFLY December 2007 - Disclaimer

ORBIFLY MET'MAP TEAM :

Programming & Development : Alexandra Zaïnal
Concept & original design : Baudouin d'Aumeries
Assistance for programming : Marc-Olivier Méhu
Technical & hardware support : Manuel Goepfert

Contact : metmap@orbifly.com




SOURCES & CREDITS :

   NOAA       Earth
Advisory